createdAt,value
2018-02-10T00:01:43.340Z,43.90
2018-02-10T00:04:11.631Z,45.20
2018-02-10T00:06:39.940Z,45.05
2018-02-10T00:09:07.467Z,42.35
2018-02-10T00:11:35.004Z,43.80
2018-02-10T00:14:02.515Z,44.83
2018-02-10T00:16:30.082Z,46.33
2018-02-10T00:18:57.579Z,42.20
2018-02-10T00:21:25.144Z,41.40
2018-02-10T00:23:53.432Z,42.45
2018-02-10T00:26:20.969Z,43.28
2018-02-10T00:28:48.491Z,42.20
2018-02-10T00:31:16.013Z,42.45
2018-02-10T00:33:43.576Z,41.00
2018-02-10T00:36:11.079Z,41.92
2018-02-10T00:38:38.599Z,41.67
2018-02-10T00:41:06.149Z,41.75
2018-02-10T00:43:33.671Z,42.08
2018-02-10T00:46:01.205Z,40.95
2018-02-10T00:48:28.724Z,44.08
2018-02-10T00:50:56.988Z,41.30
2018-02-10T00:53:25.297Z,43.17
2018-02-10T00:55:52.831Z,42.65
2018-02-10T00:58:21.083Z,44.45
2018-02-10T01:00:48.585Z,41.78
2018-02-10T01:03:16.131Z,41.50
2018-02-10T01:05:44.409Z,42.10
2018-02-10T01:08:11.946Z,42.67
2018-02-10T01:10:40.261Z,41.03
2018-02-10T01:13:07.800Z,42.80
2018-02-10T01:15:35.318Z,42.42
2018-02-10T01:18:02.847Z,40.17
2018-02-10T01:20:30.359Z,40.65
2018-02-10T01:22:58.671Z,42.90
2018-02-10T01:25:26.177Z,42.97
2018-02-10T01:27:53.692Z,44.08
2018-02-10T01:30:21.243Z,41.58
2018-02-10T01:32:48.756Z,41.08
2018-02-10T01:35:16.266Z,43.58
2018-02-10T01:37:44.553Z,41.03
2018-02-10T01:40:12.084Z,39.58
2018-02-10T01:42:39.625Z,42.05
2018-02-10T01:45:07.906Z,41.78
2018-02-10T01:47:36.219Z,40.60
2018-02-10T01:50:15.523Z,39.88
2018-02-10T01:52:43.070Z,39.42
2018-02-10T01:55:11.365Z,40.10
2018-02-10T01:57:38.870Z,38.65
2018-02-10T02:00:06.385Z,39.58
2018-02-10T02:02:33.908Z,42.20
2018-02-10T02:05:01.467Z,40.38
2018-02-10T02:07:28.998Z,41.13
2018-02-10T02:09:56.520Z,40.58
2018-02-10T02:12:24.043Z,39.92
2018-02-10T02:14:51.548Z,40.70
2018-02-10T02:17:19.104Z,40.67
2018-02-10T02:19:46.615Z,39.55
2018-02-10T02:22:14.113Z,41.22
2018-02-10T02:24:41.653Z,39.70
2018-02-10T02:27:09.943Z,41.78
2018-02-10T02:29:37.474Z,38.42
2018-02-10T02:32:05.015Z,41.85
2018-02-10T02:34:32.538Z,39.65
2018-02-10T02:37:00.045Z,40.38
2018-02-10T02:39:27.580Z,41.08
2018-02-10T02:41:55.091Z,39.83
2018-02-10T02:44:23.372Z,40.53
2018-02-10T02:46:50.916Z,39.70
2018-02-10T02:49:19.195Z,38.60
2018-02-10T02:51:47.472Z,38.88
2018-02-10T02:54:15.780Z,40.42
2018-02-10T02:56:43.297Z,38.83
2018-02-10T02:59:11.583Z,38.78
2018-02-10T03:01:39.905Z,39.75
2018-02-10T03:04:07.414Z,37.97
2018-02-10T03:06:35.718Z,36.72
2018-02-10T03:09:03.236Z,38.00
2018-02-10T03:11:30.764Z,39.58
2018-02-10T03:13:58.261Z,39.08
2018-02-10T03:16:26.556Z,40.05
2018-02-10T03:18:54.132Z,40.12
2018-02-10T03:21:21.632Z,41.15
2018-02-10T03:23:49.180Z,40.83
2018-02-10T03:26:16.700Z,40.22
2018-02-10T03:28:44.205Z,41.37
2018-02-10T03:31:11.744Z,40.78
2018-02-10T03:33:39.251Z,41.37
2018-02-10T03:36:07.555Z,43.20
2018-02-10T03:38:35.055Z,42.90
2018-02-10T03:41:02.578Z,42.28
2018-02-10T03:43:30.116Z,41.20
2018-02-10T03:45:57.630Z,39.58
2018-02-10T03:48:25.166Z,42.03
2018-02-10T03:50:52.690Z,41.95
2018-02-10T03:53:20.249Z,43.63
2018-02-10T03:55:48.538Z,42.03
2018-02-10T03:58:16.049Z,44.03
2018-02-10T04:00:43.594Z,44.50
2018-02-10T04:03:11.095Z,43.58
2018-02-10T04:05:39.367Z,41.83
2018-02-10T04:08:07.674Z,42.22
2018-02-10T04:10:35.176Z,45.55
2018-02-10T04:13:02.691Z,43.33
2018-02-10T04:15:30.240Z,42.83
2018-02-10T04:17:57.753Z,43.00
2018-02-10T04:20:25.296Z,43.83
2018-02-10T04:22:52.837Z,42.97
2018-02-10T04:25:20.342Z,43.90
2018-02-10T04:27:47.872Z,44.20
2018-02-10T04:30:15.417Z,40.10
2018-02-10T04:32:42.935Z,41.42
2018-02-10T04:35:11.237Z,37.90
2018-02-10T04:37:38.774Z,39.20
2018-02-10T04:40:07.039Z,38.05
2018-02-10T04:42:35.350Z,38.17
2018-02-10T04:45:02.856Z,37.38
2018-02-10T04:47:30.361Z,36.55
2018-02-10T04:49:57.884Z,38.08
2018-02-10T04:52:26.144Z,34.15
2018-02-10T04:54:53.678Z,33.55
2018-02-10T04:57:21.203Z,35.17
2018-02-10T04:59:48.712Z,33.65
2018-02-10T05:02:16.248Z,35.55
2018-02-10T05:04:43.764Z,35.00
2018-02-10T05:07:12.058Z,34.90
2018-02-10T05:09:39.562Z,35.28
2018-02-10T05:12:07.080Z,36.15
2018-02-10T05:14:34.626Z,36.60
2018-02-10T05:17:02.145Z,34.00
2018-02-10T05:19:29.655Z,35.35
2018-02-10T05:21:57.180Z,32.95
2018-02-10T05:24:25.466Z,33.97
2018-02-10T05:26:53.771Z,33.15
2018-02-10T05:29:21.284Z,33.50
2018-02-10T05:31:48.785Z,32.90
2018-02-10T05:34:16.315Z,33.40
2018-02-10T05:36:44.617Z,32.80
2018-02-10T05:39:12.121Z,34.00
2018-02-10T05:41:39.621Z,32.83
2018-02-10T05:44:07.144Z,34.17
2018-02-10T05:46:34.667Z,34.08
2018-02-10T05:49:02.164Z,33.90
2018-02-10T05:51:29.781Z,32.67
2018-02-10T05:53:58.101Z,34.78
2018-02-10T05:56:25.649Z,31.85
2018-02-10T05:58:53.160Z,30.65
2018-02-10T06:01:20.665Z,32.45
2018-02-10T06:03:48.189Z,32.15
2018-02-10T06:06:15.696Z,33.95
2018-02-10T06:08:44.002Z,33.17
2018-02-10T06:11:11.555Z,33.33
2018-02-10T06:13:39.042Z,34.88
2018-02-10T06:16:06.548Z,33.47
2018-02-10T06:18:34.089Z,34.00
2018-02-10T06:21:01.619Z,34.38
2018-02-10T06:23:29.155Z,33.80
2018-02-10T06:25:56.707Z,32.92
2018-02-10T06:28:24.966Z,31.92
2018-02-10T06:30:53.270Z,32.15
2018-02-10T06:33:20.768Z,32.03
2018-02-10T06:35:48.302Z,33.70
2018-02-10T06:38:15.823Z,32.22
2018-02-10T06:40:44.100Z,33.60
2018-02-10T06:43:12.389Z,37.30
2018-02-10T06:45:39.927Z,35.85
2018-02-10T06:48:07.459Z,35.72
2018-02-10T06:50:34.953Z,36.03
2018-02-10T06:53:03.259Z,34.10
2018-02-10T06:55:30.803Z,34.70
2018-02-10T06:57:58.315Z,33.45
2018-02-10T07:00:25.849Z,33.70
2018-02-10T07:02:53.443Z,32.25
2018-02-10T07:05:20.936Z,32.53
2018-02-10T07:07:48.445Z,33.20
2018-02-10T07:10:15.975Z,31.65
2018-02-10T07:12:43.475Z,31.42
2018-02-10T07:15:11.003Z,31.45
2018-02-10T07:17:38.505Z,31.58
2018-02-10T07:20:07.955Z,29.35
2018-02-10T07:22:35.493Z,30.60
2018-02-10T07:25:03.036Z,28.27
2018-02-10T07:27:31.312Z,27.70
2018-02-10T07:29:59.583Z,27.87
2018-02-10T07:32:27.891Z,27.45
2018-02-10T07:34:55.424Z,27.50
2018-02-10T07:37:23.720Z,26.52
2018-02-10T07:39:51.243Z,24.92
2018-02-10T07:42:19.546Z,25.12
2018-02-10T07:44:47.850Z,25.35
2018-02-10T07:47:16.143Z,26.10
2018-02-10T07:49:43.666Z,23.98
2018-02-10T07:52:11.189Z,24.45
2018-02-10T07:54:38.738Z,25.20
2018-02-10T07:57:06.266Z,56.37
2018-02-10T07:59:33.774Z,49.25
2018-02-10T08:02:02.095Z,26.87
2018-02-10T08:04:29.595Z,25.12
2018-02-10T08:06:57.134Z,23.12
2018-02-10T08:09:25.542Z,24.73
2018-02-10T08:11:53.847Z,26.65
2018-02-10T08:14:21.384Z,52.47
2018-02-10T08:16:50.605Z,32.30
2018-02-10T08:19:18.136Z,31.92
2018-02-10T08:21:45.639Z,50.88
2018-02-10T08:24:13.163Z,24.73
2018-02-10T08:26:41.472Z,37.38
2018-02-10T08:29:08.996Z,59.33
2018-02-10T08:31:37.258Z,31.50
2018-02-10T08:34:04.786Z,26.60
2018-02-10T08:36:32.378Z,32.13
2018-02-10T08:38:59.887Z,25.65
2018-02-10T08:41:27.446Z,23.33
2018-02-10T08:43:55.920Z,26.60
2018-02-10T08:46:25.971Z,26.35
2018-02-10T08:48:54.085Z,23.58
2018-02-10T08:51:22.862Z,35.45
2018-02-10T08:53:50.486Z,22.55
2018-02-10T08:56:19.646Z,33.08
2018-02-10T08:58:47.158Z,23.52
2018-02-10T09:01:14.689Z,22.73
2018-02-10T09:03:42.200Z,20.70
2018-02-10T09:06:10.518Z,20.10
2018-02-10T09:08:38.426Z,20.45
2018-02-10T09:11:07.487Z,18.90
2018-02-10T09:13:35.056Z,19.15
2018-02-10T09:16:06.457Z,20.35
2018-02-10T09:18:34.767Z,21.20
2018-02-10T09:21:02.284Z,20.98
2018-02-10T09:23:30.568Z,21.15
2018-02-10T09:25:58.863Z,22.45
2018-02-10T09:28:26.368Z,21.87
2018-02-10T09:30:53.892Z,21.40
2018-02-10T09:33:21.422Z,20.65
2018-02-10T09:35:49.710Z,20.52
2018-02-10T09:38:17.252Z,20.20
2018-02-10T09:40:45.526Z,30.27
2018-02-10T09:43:13.065Z,25.35
2018-02-10T09:45:40.577Z,21.62
2018-02-10T09:48:08.101Z,20.73
2018-02-10T09:50:37.247Z,18.12
2018-02-10T09:55:44.053Z,20.12
2018-02-10T09:58:11.618Z,19.23
2018-02-10T10:00:40.321Z,18.75
2018-02-10T10:03:07.813Z,19.87
2018-02-10T10:05:35.346Z,19.30
2018-02-10T10:08:03.636Z,20.55
2018-02-10T10:10:31.174Z,19.17
2018-02-10T10:12:59.511Z,18.52
2018-02-10T10:15:27.048Z,18.67
2018-02-10T10:17:54.559Z,18.08
2018-02-10T10:20:22.084Z,17.90
2018-02-10T10:22:49.657Z,18.00
2018-02-10T10:25:17.168Z,17.12
2018-02-10T10:27:44.721Z,16.00
2018-02-10T10:30:12.423Z,18.37
2018-02-10T10:32:39.948Z,18.02
2018-02-10T10:35:08.231Z,16.73
2018-02-10T10:37:35.871Z,15.88
2018-02-10T10:40:04.192Z,15.90
2018-02-10T10:42:31.748Z,17.58
2018-02-10T10:44:59.274Z,17.10
2018-02-10T10:47:26.834Z,16.02
2018-02-10T10:49:55.119Z,17.42
2018-02-10T10:52:22.658Z,17.45
2018-02-10T10:54:50.174Z,17.17
2018-02-10T10:57:17.957Z,17.20
2018-02-10T10:59:45.507Z,16.98
2018-02-10T11:02:13.045Z,15.68
2018-02-10T11:04:40.595Z,16.60
2018-02-10T11:07:08.214Z,15.82
2018-02-10T11:09:36.492Z,14.43
2018-02-10T11:12:04.026Z,15.13
2018-02-10T11:14:31.569Z,15.82
2018-02-10T11:16:59.128Z,15.57
2018-02-10T11:19:26.643Z,16.10
2018-02-10T11:21:54.201Z,16.60
2018-02-10T11:24:22.470Z,16.30
2018-02-10T11:26:50.800Z,17.00
2018-02-10T11:29:18.322Z,17.08
2018-02-10T11:31:45.870Z,17.20
2018-02-10T11:34:14.159Z,17.20
2018-02-10T11:36:41.692Z,19.60
2018-02-10T11:39:09.993Z,17.30
2018-02-10T11:41:38.290Z,17.15
2018-02-10T11:44:05.815Z,18.73
2018-02-10T11:46:34.104Z,17.08
2018-02-10T11:49:01.629Z,17.12
2018-02-10T11:51:29.936Z,30.85
2018-02-10T11:53:58.262Z,17.52
2018-02-10T11:56:26.193Z,17.35
2018-02-10T11:58:53.709Z,16.65
2018-02-10T12:01:21.260Z,16.35
2018-02-10T12:03:48.801Z,16.30
2018-02-10T12:06:16.346Z,16.95
2018-02-10T12:08:43.854Z,19.48
2018-02-10T12:11:11.409Z,17.10
2018-02-10T12:13:38.922Z,18.55
2018-02-10T12:16:07.249Z,16.95
2018-02-10T12:18:34.857Z,17.12
2018-02-10T12:21:02.360Z,15.23
2018-02-10T12:23:29.871Z,15.43
2018-02-10T12:25:57.445Z,15.60
2018-02-10T12:28:24.981Z,15.02
2018-02-10T12:30:52.513Z,13.70
2018-02-10T12:33:20.849Z,14.25
2018-02-10T12:35:49.103Z,15.27
2018-02-10T12:38:17.365Z,26.75
2018-02-10T12:40:45.003Z,14.55
2018-02-10T12:43:12.640Z,13.75
2018-02-10T12:45:40.198Z,14.87
2018-02-10T12:51:16.729Z,14.68
2018-02-10T12:53:44.266Z,14.30
2018-02-10T12:56:11.811Z,15.80
2018-02-10T12:58:39.331Z,14.00
2018-02-10T13:01:06.862Z,14.05
2018-02-10T13:03:34.445Z,13.68
2018-02-10T13:06:01.965Z,14.43
2018-02-10T13:08:30.279Z,12.93
2018-02-10T13:10:57.783Z,13.77
2018-02-10T13:13:25.310Z,14.05
2018-02-10T13:15:52.829Z,14.18
2018-02-10T13:18:20.375Z,13.43
2018-02-10T13:20:47.915Z,14.65
2018-02-10T15:01:14.590Z,10.60
2018-02-10T15:03:42.113Z,96.22
2018-02-10T15:06:12.554Z,57.75
2018-02-10T15:08:40.135Z,62.00
2018-02-10T15:11:07.639Z,13.18
2018-02-10T15:13:35.961Z,10.82
2018-02-10T15:16:03.478Z,12.57
2018-02-10T15:18:31.002Z,9.55
2018-02-10T15:20:58.630Z,9.63
2018-02-10T15:23:26.191Z,8.90
2018-02-10T15:25:53.760Z,9.55
2018-02-10T15:28:21.310Z,7.70
2018-02-10T15:31:00.822Z,9.75
2018-02-10T15:33:40.171Z,9.18
2018-02-10T15:36:08.541Z,9.05
2018-02-10T15:38:36.093Z,11.00
2018-02-10T15:41:03.631Z,10.27
2018-02-10T15:43:31.948Z,9.32
2018-02-10T15:45:59.463Z,9.23
2018-02-10T15:48:28.128Z,10.07
2018-02-10T15:50:55.659Z,10.07
2018-02-10T15:53:23.161Z,11.63
2018-02-10T15:55:50.704Z,11.20
2018-02-10T15:58:18.216Z,12.73
2018-02-10T16:00:45.724Z,10.50
2018-02-10T16:03:13.287Z,10.93
2018-02-10T16:05:40.839Z,12.85
2018-02-10T16:08:09.056Z,12.20
2018-02-10T16:10:36.579Z,12.07
2018-02-10T16:13:05.012Z,10.90
2018-02-10T16:15:32.668Z,10.85
2018-02-10T16:18:00.282Z,11.50
2018-02-10T16:20:28.797Z,12.98
2018-02-10T16:22:58.541Z,9.80
2018-02-10T16:25:26.510Z,9.35
2018-02-10T16:27:55.192Z,9.50
2018-02-10T16:30:23.662Z,10.10
2018-02-10T16:32:52.154Z,9.18
2018-02-10T16:35:22.674Z,10.07
2018-02-10T16:37:50.198Z,9.23
2018-02-10T16:40:19.270Z,9.25
2018-02-10T16:42:46.779Z,9.82
2018-02-10T16:45:14.279Z,9.50
2018-02-10T16:47:43.612Z,10.43
2018-02-10T16:50:12.690Z,9.88
2018-02-10T16:52:40.313Z,10.20
2018-02-10T16:55:08.442Z,9.48
2018-02-10T16:57:36.713Z,9.75
2018-02-10T17:00:05.032Z,10.93
2018-02-10T17:02:33.045Z,10.63
2018-02-10T17:05:00.559Z,9.90
2018-02-10T17:07:29.247Z,10.35
2018-02-10T17:09:57.827Z,9.65
2018-02-10T17:12:26.698Z,10.30
2018-02-10T17:14:54.446Z,9.10
2018-02-10T17:17:22.087Z,9.43
2018-02-10T17:19:49.609Z,9.13
2018-02-10T17:22:17.131Z,9.85
2018-02-10T17:24:45.407Z,18.92
2018-02-10T17:27:13.878Z,11.12
2018-02-10T17:29:42.155Z,12.30
2018-02-10T17:32:11.431Z,10.27
2018-02-10T17:34:39.680Z,11.93
2018-02-10T17:37:07.196Z,13.48
2018-02-10T17:39:34.721Z,32.42
2018-02-10T17:42:02.231Z,33.15
2018-02-10T17:44:30.022Z,18.33
2018-02-10T17:46:57.535Z,46.72
2018-02-10T17:49:26.033Z,25.12
2018-02-10T17:51:53.696Z,17.35
2018-02-10T17:54:21.241Z,15.05
2018-02-10T17:56:49.763Z,14.50
2018-02-10T17:59:17.251Z,13.38
2018-02-10T18:01:44.762Z,14.65
2018-02-10T18:04:12.258Z,14.18
2018-02-10T18:06:40.024Z,13.20
2018-02-10T18:09:07.842Z,13.20
2018-02-10T18:11:35.409Z,12.45
2018-02-10T18:14:02.945Z,12.85
2018-02-10T18:16:31.258Z,14.57
2018-02-10T18:18:59.072Z,13.95
2018-02-10T18:21:27.662Z,13.10
2018-02-10T18:23:55.266Z,12.30
2018-02-10T18:26:23.522Z,12.50
2018-02-10T18:28:51.062Z,13.30
2018-02-10T18:31:19.319Z,12.68
2018-02-10T18:33:46.918Z,12.50
2018-02-10T18:36:14.454Z,13.15
2018-02-10T18:38:42.759Z,13.05
2018-02-10T18:41:10.263Z,13.20
2018-02-10T18:43:37.812Z,12.65
2018-02-10T18:46:05.344Z,13.38
2018-02-10T18:48:32.939Z,11.93
2018-02-10T18:51:00.582Z,11.30
2018-02-10T18:53:28.144Z,11.90
2018-02-10T18:55:55.684Z,12.45
2018-02-10T18:58:23.497Z,12.35
2018-02-10T19:00:52.037Z,11.93
2018-02-10T19:03:19.755Z,12.37
2018-02-10T19:05:48.043Z,12.80
2018-02-10T19:08:16.467Z,10.82
2018-02-10T19:10:44.108Z,11.70
2018-02-10T19:13:11.651Z,11.50
2018-02-10T19:15:39.241Z,11.60
2018-02-10T19:18:06.754Z,12.57
2018-02-10T19:20:35.030Z,12.80
2018-02-10T19:23:03.394Z,11.35
2018-02-10T19:25:31.784Z,10.65
2018-02-10T19:27:59.467Z,13.30
2018-02-10T19:30:26.964Z,13.27
2018-02-10T19:32:54.484Z,13.48
2018-02-10T19:35:22.132Z,13.62
2018-02-10T19:37:50.301Z,13.90
2018-02-10T19:40:18.059Z,13.80
2018-02-10T19:42:45.693Z,13.02
2018-02-10T19:45:13.322Z,13.13
2018-02-10T19:47:41.130Z,13.02
2018-02-10T19:50:08.927Z,12.55
2018-02-10T19:52:36.542Z,12.52
2018-02-10T19:55:04.117Z,13.20
2018-02-10T19:57:32.860Z,13.10
2018-02-10T20:00:00.617Z,14.25
2018-02-10T20:02:28.182Z,15.95
2018-02-10T20:04:55.775Z,14.32
2018-02-10T20:07:23.656Z,14.07
2018-02-10T20:09:52.540Z,14.40
2018-02-10T20:12:21.119Z,14.65
2018-02-10T20:14:49.141Z,14.90
2018-02-10T20:17:16.965Z,15.65
2018-02-10T20:19:44.596Z,15.40
2018-02-10T20:22:12.219Z,15.02
2018-02-10T20:24:40.028Z,15.73
2018-02-10T20:27:08.002Z,16.33
2018-02-10T20:29:36.369Z,16.20
2018-02-10T20:32:03.955Z,63.05
2018-02-10T20:34:31.597Z,84.45
2018-02-10T20:36:59.478Z,65.82
2018-02-10T20:39:27.238Z,22.37
2018-02-10T20:41:54.802Z,37.10
2018-02-10T20:44:22.469Z,73.20
2018-02-10T20:46:50.315Z,74.47
2018-02-10T20:49:18.128Z,78.40
2018-02-10T20:51:45.795Z,61.15
2018-02-10T20:54:14.215Z,38.58
2018-02-10T20:56:41.771Z,18.23
2018-02-10T20:59:09.316Z,18.45
2018-02-10T21:01:36.897Z,17.15
2018-02-10T21:04:04.404Z,16.40
2018-02-10T21:06:32.815Z,16.55
2018-02-10T21:09:00.349Z,15.40
2018-02-10T21:11:27.894Z,14.15
2018-02-10T21:13:56.246Z,14.27
2018-02-10T21:16:24.187Z,15.52
2018-02-10T21:18:51.734Z,15.20
2018-02-10T21:21:19.250Z,15.45
2018-02-10T21:23:46.806Z,16.85
2018-02-10T21:26:14.318Z,19.80
2018-02-10T21:28:41.855Z,16.77
2018-02-10T21:31:09.375Z,16.10
2018-02-10T21:33:36.916Z,16.90
2018-02-10T21:36:05.096Z,27.13
2018-02-10T21:38:32.604Z,19.48
2018-02-10T21:41:00.175Z,16.80
2018-02-10T21:43:27.684Z,16.30
2018-02-10T21:45:55.204Z,17.00
2018-02-10T21:48:22.751Z,16.10
2018-02-10T21:50:50.524Z,15.60
2018-02-10T21:53:18.023Z,15.70
2018-02-10T21:55:45.539Z,15.07
2018-02-10T21:58:13.065Z,15.60
2018-02-10T22:00:40.579Z,15.05
2018-02-10T22:03:08.098Z,15.70
2018-02-10T22:05:38.592Z,16.10
2018-02-10T22:08:06.904Z,16.08
2018-02-10T22:10:36.152Z,15.80
2018-02-10T22:13:07.180Z,16.25
2018-02-10T22:15:34.706Z,16.20
2018-02-10T22:18:08.412Z,16.90
2018-02-10T22:20:38.733Z,17.48
2018-02-10T22:23:06.293Z,16.73
2018-02-10T22:25:33.856Z,17.48
2018-02-10T22:28:05.639Z,16.83
2018-02-10T22:30:33.197Z,18.23
2018-02-10T22:33:00.744Z,18.10
2018-02-10T22:35:29.041Z,18.87
2018-02-10T22:37:56.704Z,18.75
2018-02-10T22:40:24.191Z,17.40
2018-02-10T22:42:52.466Z,18.45
2018-02-10T22:45:19.983Z,19.33
2018-02-10T22:47:47.496Z,18.08
2018-02-10T22:50:15.801Z,18.37
2018-02-10T22:52:44.082Z,17.73
2018-02-10T22:55:11.685Z,18.25
2018-02-10T22:57:39.213Z,18.75
2018-02-10T23:00:06.742Z,18.15
2018-02-10T23:02:34.284Z,18.25
2018-02-10T23:05:02.557Z,17.77
2018-02-10T23:07:30.822Z,16.85
2018-02-10T23:09:58.356Z,17.17
2018-02-10T23:12:25.861Z,17.20
2018-02-10T23:14:54.124Z,17.00
2018-02-10T23:17:22.406Z,17.92
2018-02-10T23:19:50.668Z,16.90
2018-02-10T23:22:18.985Z,17.25
2018-02-10T23:24:46.483Z,16.48
2018-02-10T23:27:13.985Z,16.15
2018-02-10T23:29:42.286Z,15.82
2018-02-10T23:32:09.839Z,17.33
2018-02-10T23:34:37.360Z,16.58
2018-02-10T23:37:05.626Z,17.12
2018-02-10T23:39:33.171Z,16.58
2018-02-10T23:42:00.703Z,16.42
2018-02-10T23:44:28.244Z,17.37
2018-02-10T23:46:55.776Z,17.90
2018-02-10T23:49:24.856Z,17.30
2018-02-10T23:51:52.368Z,16.33
2018-02-10T23:54:19.869Z,16.67
2018-02-10T23:56:47.421Z,16.92
2018-02-10T23:59:14.960Z,17.40
